sensor_id;sensor_type;location;lat;lon;timestamp;P1;durP1;ratioP1;P2;durP2;ratioP2
69678;SDS011;56915;52.046;4.854;2023-03-20T00:02:16;17.17;;;6.43;;
69678;SDS011;56915;52.046;4.854;2023-03-20T00:04:44;16.73;;;6.00;;
69678;SDS011;56915;52.046;4.854;2023-03-20T00:07:11;12.38;;;5.20;;
69678;SDS011;56915;52.046;4.854;2023-03-20T00:09:38;11.70;;;4.17;;
69678;SDS011;56915;52.046;4.854;2023-03-20T00:12:05;10.75;;;4.15;;
69678;SDS011;56915;52.046;4.854;2023-03-20T00:14:32;13.68;;;4.10;;
69678;SDS011;56915;52.046;4.854;2023-03-20T00:17:03;10.10;;;3.70;;
69678;SDS011;56915;52.046;4.854;2023-03-20T00:19:43;8.52;;;3.45;;
69678;SDS011;56915;52.046;4.854;2023-03-20T00:22:10;9.80;;;3.80;;
69678;SDS011;56915;52.046;4.854;2023-03-20T00:24:37;9.88;;;3.65;;
69678;SDS011;56915;52.046;4.854;2023-03-20T00:27:04;8.57;;;3.85;;
69678;SDS011;56915;52.046;4.854;2023-03-20T00:29:31;12.68;;;4.10;;
69678;SDS011;56915;52.046;4.854;2023-03-20T00:31:59;12.15;;;4.10;;
69678;SDS011;56915;52.046;4.854;2023-03-20T00:34:27;13.00;;;4.13;;
69678;SDS011;56915;52.046;4.854;2023-03-20T00:36:55;11.80;;;4.22;;
69678;SDS011;56915;52.046;4.854;2023-03-20T00:39:23;12.48;;;4.15;;
69678;SDS011;56915;52.046;4.854;2023-03-20T00:41:51;14.85;;;4.40;;
69678;SDS011;56915;52.046;4.854;2023-03-20T00:44:22;14.10;;;4.78;;
69678;SDS011;56915;52.046;4.854;2023-03-20T00:46:51;12.50;;;4.43;;
69678;SDS011;56915;52.046;4.854;2023-03-20T00:49:27;12.35;;;4.55;;
69678;SDS011;56915;52.046;4.854;2023-03-20T00:51:57;13.75;;;4.45;;
69678;SDS011;56915;52.046;4.854;2023-03-20T00:54:26;16.67;;;4.57;;
69678;SDS011;56915;52.046;4.854;2023-03-20T00:56:59;15.57;;;4.95;;
69678;SDS011;56915;52.046;4.854;2023-03-20T00:59:39;16.83;;;5.30;;
69678;SDS011;56915;52.046;4.854;2023-03-20T01:02:13;16.05;;;5.38;;
69678;SDS011;56915;52.046;4.854;2023-03-20T01:04:41;15.00;;;5.00;;
69678;SDS011;56915;52.046;4.854;2023-03-20T01:07:10;16.80;;;5.80;;
69678;SDS011;56915;52.046;4.854;2023-03-20T01:09:39;17.25;;;5.93;;
69678;SDS011;56915;52.046;4.854;2023-03-20T01:12:08;19.17;;;5.80;;
69678;SDS011;56915;52.046;4.854;2023-03-20T01:14:37;14.40;;;5.60;;
69678;SDS011;56915;52.046;4.854;2023-03-20T01:17:04;18.95;;;6.00;;
69678;SDS011;56915;52.046;4.854;2023-03-20T01:19:38;17.30;;;5.63;;
69678;SDS011;56915;52.046;4.854;2023-03-20T01:22:05;19.70;;;6.05;;
69678;SDS011;56915;52.046;4.854;2023-03-20T01:24:32;19.90;;;6.00;;
69678;SDS011;56915;52.046;4.854;2023-03-20T01:26:59;18.13;;;5.57;;
69678;SDS011;56915;52.046;4.854;2023-03-20T01:29:29;17.65;;;5.90;;
69678;SDS011;56915;52.046;4.854;2023-03-20T01:31:56;17.73;;;5.60;;
69678;SDS011;56915;52.046;4.854;2023-03-20T01:34:23;19.45;;;6.68;;
69678;SDS011;56915;52.046;4.854;2023-03-20T01:36:51;18.80;;;6.27;;
69678;SDS011;56915;52.046;4.854;2023-03-20T01:39:20;18.98;;;6.13;;
69678;SDS011;56915;52.046;4.854;2023-03-20T01:41:50;20.80;;;6.30;;
69678;SDS011;56915;52.046;4.854;2023-03-20T01:44:22;22.55;;;6.70;;
69678;SDS011;56915;52.046;4.854;2023-03-20T01:46:52;19.65;;;6.35;;
69678;SDS011;56915;52.046;4.854;2023-03-20T01:51:47;20.33;;;6.97;;
69678;SDS011;56915;52.046;4.854;2023-03-20T01:54:17;26.83;;;7.20;;
69678;SDS011;56915;52.046;4.854;2023-03-20T01:56:47;23.25;;;7.63;;
69678;SDS011;56915;52.046;4.854;2023-03-20T01:59:28;24.83;;;8.50;;
69678;SDS011;56915;52.046;4.854;2023-03-20T02:02:18;26.30;;;8.50;;
69678;SDS011;56915;52.046;4.854;2023-03-20T02:04:49;27.40;;;8.43;;
69678;SDS011;56915;52.046;4.854;2023-03-20T02:07:20;28.08;;;8.85;;
69678;SDS011;56915;52.046;4.854;2023-03-20T02:09:48;29.45;;;9.27;;
69678;SDS011;56915;52.046;4.854;2023-03-20T02:12:15;28.85;;;8.93;;
69678;SDS011;56915;52.046;4.854;2023-03-20T02:14:45;24.83;;;9.03;;
69678;SDS011;56915;52.046;4.854;2023-03-20T02:17:12;24.88;;;8.95;;
69678;SDS011;56915;52.046;4.854;2023-03-20T02:28:31;27.17;;;9.37;;
69678;SDS011;56915;52.046;4.854;2023-03-20T02:31:54;23.73;;;8.85;;
69678;SDS011;56915;52.046;4.854;2023-03-20T02:40:50;25.13;;;9.27;;
69678;SDS011;56915;52.046;4.854;2023-03-20T02:59:54;25.08;;;8.93;;
69678;SDS011;56915;52.046;4.854;2023-03-20T03:02:29;29.63;;;10.57;;
69678;SDS011;56915;52.046;4.854;2023-03-20T03:05:03;28.77;;;10.40;;
69678;SDS011;56915;52.046;4.854;2023-03-20T03:07:34;26.30;;;9.57;;
69678;SDS011;56915;52.046;4.854;2023-03-20T03:12:37;27.80;;;9.90;;
69678;SDS011;56915;52.046;4.854;2023-03-20T03:15:12;23.50;;;8.50;;
69678;SDS011;56915;52.046;4.854;2023-03-20T03:18:04;26.98;;;9.25;;
69678;SDS011;56915;52.046;4.854;2023-03-20T03:20:37;23.85;;;9.10;;
69678;SDS011;56915;52.046;4.854;2023-03-20T03:23:05;25.10;;;8.80;;
69678;SDS011;56915;52.046;4.854;2023-03-20T03:25:34;24.30;;;9.18;;
69678;SDS011;56915;52.046;4.854;2023-03-20T03:30:48;22.77;;;8.52;;
69678;SDS011;56915;52.046;4.854;2023-03-20T03:33:23;21.75;;;8.10;;
69678;SDS011;56915;52.046;4.854;2023-03-20T03:36:18;19.63;;;7.53;;
69678;SDS011;56915;52.046;4.854;2023-03-20T03:41:31;22.63;;;8.48;;
69678;SDS011;56915;52.046;4.854;2023-03-20T03:47:08;22.15;;;8.48;;
69678;SDS011;56915;52.046;4.854;2023-03-20T03:50:02;21.73;;;8.50;;
69678;SDS011;56915;52.046;4.854;2023-03-20T03:52:57;24.42;;;8.00;;
69678;SDS011;56915;52.046;4.854;2023-03-20T03:55:31;22.05;;;8.57;;
69678;SDS011;56915;52.046;4.854;2023-03-20T03:58:06;20.05;;;7.70;;
69678;SDS011;56915;52.046;4.854;2023-03-20T04:00:39;23.23;;;8.52;;
69678;SDS011;56915;52.046;4.854;2023-03-20T04:03:08;20.70;;;8.33;;
69678;SDS011;56915;52.046;4.854;2023-03-20T04:05:36;24.77;;;8.55;;
69678;SDS011;56915;52.046;4.854;2023-03-20T04:08:06;23.13;;;8.55;;
69678;SDS011;56915;52.046;4.854;2023-03-20T04:10:33;21.90;;;8.70;;
69678;SDS011;56915;52.046;4.854;2023-03-20T04:13:00;17.83;;;8.38;;
69678;SDS011;56915;52.046;4.854;2023-03-20T04:15:27;21.70;;;8.40;;
69678;SDS011;56915;52.046;4.854;2023-03-20T04:17:54;23.25;;;9.02;;
69678;SDS011;56915;52.046;4.854;2023-03-20T04:20:21;20.55;;;8.82;;
69678;SDS011;56915;52.046;4.854;2023-03-20T04:22:48;25.98;;;9.68;;
69678;SDS011;56915;52.046;4.854;2023-03-20T04:25:16;22.17;;;9.77;;
69678;SDS011;56915;52.046;4.854;2023-03-20T04:27:49;20.23;;;9.50;;
69678;SDS011;56915;52.046;4.854;2023-03-20T04:30:17;21.63;;;10.00;;
69678;SDS011;56915;52.046;4.854;2023-03-20T04:32:44;20.95;;;10.07;;
69678;SDS011;56915;52.046;4.854;2023-03-20T04:35:11;25.20;;;10.55;;
69678;SDS011;56915;52.046;4.854;2023-03-20T04:37:37;23.08;;;10.35;;
69678;SDS011;56915;52.046;4.854;2023-03-20T04:40:04;23.30;;;10.30;;
69678;SDS011;56915;52.046;4.854;2023-03-20T04:42:31;23.85;;;10.48;;
69678;SDS011;56915;52.046;4.854;2023-03-20T04:44:58;26.10;;;11.32;;
69678;SDS011;56915;52.046;4.854;2023-03-20T04:47:25;21.63;;;10.80;;
69678;SDS011;56915;52.046;4.854;2023-03-20T04:49:52;24.15;;;11.32;;
69678;SDS011;56915;52.046;4.854;2023-03-20T04:52:19;23.60;;;11.53;;
69678;SDS011;56915;52.046;4.854;2023-03-20T04:54:46;28.50;;;11.50;;
69678;SDS011;56915;52.046;4.854;2023-03-20T04:57:13;25.17;;;11.50;;
69678;SDS011;56915;52.046;4.854;2023-03-20T04:59:40;25.90;;;11.75;;
69678;SDS011;56915;52.046;4.854;2023-03-20T05:02:06;27.67;;;12.23;;
69678;SDS011;56915;52.046;4.854;2023-03-20T05:04:33;27.43;;;11.57;;
69678;SDS011;56915;52.046;4.854;2023-03-20T05:07:01;27.25;;;11.98;;
69678;SDS011;56915;52.046;4.854;2023-03-20T05:09:28;27.48;;;11.85;;
69678;SDS011;56915;52.046;4.854;2023-03-20T05:11:55;23.70;;;11.80;;
69678;SDS011;56915;52.046;4.854;2023-03-20T05:14:21;26.55;;;11.68;;
69678;SDS011;56915;52.046;4.854;2023-03-20T05:16:48;27.23;;;12.00;;
69678;SDS011;56915;52.046;4.854;2023-03-20T05:19:16;26.20;;;12.15;;
69678;SDS011;56915;52.046;4.854;2023-03-20T05:21:42;27.98;;;12.95;;
69678;SDS011;56915;52.046;4.854;2023-03-20T05:24:10;29.92;;;13.10;;
69678;SDS011;56915;52.046;4.854;2023-03-20T05:26:36;23.33;;;12.48;;
69678;SDS011;56915;52.046;4.854;2023-03-20T05:29:03;25.77;;;13.27;;
69678;SDS011;56915;52.046;4.854;2023-03-20T05:31:30;30.30;;;12.73;;
69678;SDS011;56915;52.046;4.854;2023-03-20T05:33:57;24.20;;;12.68;;
69678;SDS011;56915;52.046;4.854;2023-03-20T05:36:24;27.77;;;13.13;;
69678;SDS011;56915;52.046;4.854;2023-03-20T05:38:51;30.63;;;13.95;;
69678;SDS011;56915;52.046;4.854;2023-03-20T05:41:18;27.53;;;13.33;;
69678;SDS011;56915;52.046;4.854;2023-03-20T05:43:44;25.80;;;13.07;;
69678;SDS011;56915;52.046;4.854;2023-03-20T05:46:11;29.70;;;13.57;;
69678;SDS011;56915;52.046;4.854;2023-03-20T05:48:38;32.97;;;13.95;;
69678;SDS011;56915;52.046;4.854;2023-03-20T05:51:06;31.27;;;14.13;;
69678;SDS011;56915;52.046;4.854;2023-03-20T05:53:33;29.03;;;13.43;;
69678;SDS011;56915;52.046;4.854;2023-03-20T05:56:00;30.25;;;13.27;;
69678;SDS011;56915;52.046;4.854;2023-03-20T05:58:26;29.33;;;13.85;;
69678;SDS011;56915;52.046;4.854;2023-03-20T06:00:53;31.75;;;13.73;;
69678;SDS011;56915;52.046;4.854;2023-03-20T06:03:23;31.42;;;13.82;;
69678;SDS011;56915;52.046;4.854;2023-03-20T06:05:50;34.63;;;13.53;;
69678;SDS011;56915;52.046;4.854;2023-03-20T06:08:17;29.70;;;12.93;;
69678;SDS011;56915;52.046;4.854;2023-03-20T06:10:44;29.73;;;13.30;;
69678;SDS011;56915;52.046;4.854;2023-03-20T06:13:11;26.42;;;12.85;;
69678;SDS011;56915;52.046;4.854;2023-03-20T06:15:37;27.10;;;13.05;;
69678;SDS011;56915;52.046;4.854;2023-03-20T06:18:04;28.83;;;13.43;;
69678;SDS011;56915;52.046;4.854;2023-03-20T06:20:31;26.90;;;12.88;;
69678;SDS011;56915;52.046;4.854;2023-03-20T06:22:58;29.17;;;12.75;;
69678;SDS011;56915;52.046;4.854;2023-03-20T06:25:25;26.67;;;12.52;;
69678;SDS011;56915;52.046;4.854;2023-03-20T06:27:52;26.52;;;12.60;;
69678;SDS011;56915;52.046;4.854;2023-03-20T06:30:18;24.70;;;12.40;;
69678;SDS011;56915;52.046;4.854;2023-03-20T06:32:46;24.77;;;12.07;;
69678;SDS011;56915;52.046;4.854;2023-03-20T06:37:47;27.45;;;12.55;;
69678;SDS011;56915;52.046;4.854;2023-03-20T06:40:14;26.48;;;12.35;;
69678;SDS011;56915;52.046;4.854;2023-03-20T06:42:42;28.03;;;11.53;;
69678;SDS011;56915;52.046;4.854;2023-03-20T06:45:09;22.50;;;11.30;;
69678;SDS011;56915;52.046;4.854;2023-03-20T06:47:37;25.83;;;11.55;;
69678;SDS011;56915;52.046;4.854;2023-03-20T06:50:04;23.80;;;10.82;;
69678;SDS011;56915;52.046;4.854;2023-03-20T06:52:31;27.42;;;11.35;;
69678;SDS011;56915;52.046;4.854;2023-03-20T06:54:59;25.43;;;10.13;;
69678;SDS011;56915;52.046;4.854;2023-03-20T06:57:26;22.65;;;10.27;;
69678;SDS011;56915;52.046;4.854;2023-03-20T06:59:53;20.23;;;10.43;;
69678;SDS011;56915;52.046;4.854;2023-03-20T07:02:20;22.30;;;10.07;;
69678;SDS011;56915;52.046;4.854;2023-03-20T07:04:48;21.50;;;9.77;;
69678;SDS011;56915;52.046;4.854;2023-03-20T07:07:15;23.93;;;10.23;;
69678;SDS011;56915;52.046;4.854;2023-03-20T07:09:42;20.52;;;9.18;;
69678;SDS011;56915;52.046;4.854;2023-03-20T07:12:12;23.63;;;10.52;;
69678;SDS011;56915;52.046;4.854;2023-03-20T07:14:40;22.60;;;9.05;;
69678;SDS011;56915;52.046;4.854;2023-03-20T07:17:08;19.52;;;9.50;;
69678;SDS011;56915;52.046;4.854;2023-03-20T07:19:35;22.90;;;8.30;;
69678;SDS011;56915;52.046;4.854;2023-03-20T07:22:04;21.80;;;9.98;;
69678;SDS011;56915;52.046;4.854;2023-03-20T07:24:33;20.85;;;8.48;;
69678;SDS011;56915;52.046;4.854;2023-03-20T07:27:01;21.63;;;8.10;;
69678;SDS011;56915;52.046;4.854;2023-03-20T07:29:28;19.10;;;8.10;;
69678;SDS011;56915;52.046;4.854;2023-03-20T07:31:57;19.57;;;8.30;;
69678;SDS011;56915;52.046;4.854;2023-03-20T07:34:26;17.17;;;7.43;;
69678;SDS011;56915;52.046;4.854;2023-03-20T07:36:53;18.58;;;8.30;;
69678;SDS011;56915;52.046;4.854;2023-03-20T07:39:21;16.90;;;7.47;;
69678;SDS011;56915;52.046;4.854;2023-03-20T07:41:50;16.88;;;7.10;;
69678;SDS011;56915;52.046;4.854;2023-03-20T07:44:27;17.93;;;7.27;;
69678;SDS011;56915;52.046;4.854;2023-03-20T07:46:56;15.30;;;6.82;;
69678;SDS011;56915;52.046;4.854;2023-03-20T07:49:37;16.00;;;6.90;;
69678;SDS011;56915;52.046;4.854;2023-03-20T07:52:05;18.52;;;6.82;;
69678;SDS011;56915;52.046;4.854;2023-03-20T07:54:33;17.38;;;7.05;;
69678;SDS011;56915;52.046;4.854;2023-03-20T07:57:02;18.90;;;7.30;;
69678;SDS011;56915;52.046;4.854;2023-03-20T07:59:30;17.73;;;6.97;;
69678;SDS011;56915;52.046;4.854;2023-03-20T08:01:58;17.70;;;7.10;;
69678;SDS011;56915;52.046;4.854;2023-03-20T08:04:27;15.77;;;6.88;;
69678;SDS011;56915;52.046;4.854;2023-03-20T08:06:54;15.88;;;6.78;;
69678;SDS011;56915;52.046;4.854;2023-03-20T08:09:22;16.17;;;6.13;;
69678;SDS011;56915;52.046;4.854;2023-03-20T08:11:48;16.63;;;6.30;;
69678;SDS011;56915;52.046;4.854;2023-03-20T08:14:20;16.75;;;6.47;;
69678;SDS011;56915;52.046;4.854;2023-03-20T08:16:47;17.60;;;6.53;;
69678;SDS011;56915;52.046;4.854;2023-03-20T08:19:34;16.83;;;6.05;;
69678;SDS011;56915;52.046;4.854;2023-03-20T08:22:04;15.97;;;6.27;;
69678;SDS011;56915;52.046;4.854;2023-03-20T08:24:33;19.67;;;6.90;;
69678;SDS011;56915;52.046;4.854;2023-03-20T08:27:01;18.75;;;6.93;;
69678;SDS011;56915;52.046;4.854;2023-03-20T08:29:33;20.13;;;7.20;;
69678;SDS011;56915;52.046;4.854;2023-03-20T08:32:02;18.52;;;7.22;;
69678;SDS011;56915;52.046;4.854;2023-03-20T08:34:39;18.00;;;7.17;;
69678;SDS011;56915;52.046;4.854;2023-03-20T08:37:06;16.80;;;7.30;;
69678;SDS011;56915;52.046;4.854;2023-03-20T08:39:33;16.52;;;6.95;;
69678;SDS011;56915;52.046;4.854;2023-03-20T08:42:01;12.88;;;5.90;;
69678;SDS011;56915;52.046;4.854;2023-03-20T08:44:30;19.13;;;6.45;;
69678;SDS011;56915;52.046;4.854;2023-03-20T08:46:59;17.83;;;5.93;;
69678;SDS011;56915;52.046;4.854;2023-03-20T08:49:29;14.13;;;5.68;;
69678;SDS011;56915;52.046;4.854;2023-03-20T08:52:08;14.30;;;5.45;;
69678;SDS011;56915;52.046;4.854;2023-03-20T08:54:36;14.32;;;4.95;;
69678;SDS011;56915;52.046;4.854;2023-03-20T08:57:04;14.52;;;5.03;;
69678;SDS011;56915;52.046;4.854;2023-03-20T08:59:32;10.13;;;4.27;;
69678;SDS011;56915;52.046;4.854;2023-03-20T09:02:01;12.57;;;4.78;;
69678;SDS011;56915;52.046;4.854;2023-03-20T09:04:27;11.85;;;4.60;;
69678;SDS011;56915;52.046;4.854;2023-03-20T09:06:55;13.30;;;5.18;;
69678;SDS011;56915;52.046;4.854;2023-03-20T09:09:23;15.05;;;5.65;;
69678;SDS011;56915;52.046;4.854;2023-03-20T09:11:55;12.20;;;4.60;;
69678;SDS011;56915;52.046;4.854;2023-03-20T09:14:23;12.70;;;4.53;;
69678;SDS011;56915;52.046;4.854;2023-03-20T09:16:56;12.68;;;5.80;;
69678;SDS011;56915;52.046;4.854;2023-03-20T09:19:25;15.50;;;6.18;;
69678;SDS011;56915;52.046;4.854;2023-03-20T09:21:55;13.10;;;5.60;;
69678;SDS011;56915;52.046;4.854;2023-03-20T09:24:23;13.70;;;4.97;;
69678;SDS011;56915;52.046;4.854;2023-03-20T09:26:51;10.15;;;4.80;;
69678;SDS011;56915;52.046;4.854;2023-03-20T09:29:18;12.93;;;4.72;;
69678;SDS011;56915;52.046;4.854;2023-03-20T09:31:45;16.40;;;5.40;;
69678;SDS011;56915;52.046;4.854;2023-03-20T09:34:12;14.07;;;4.93;;
69678;SDS011;56915;52.046;4.854;2023-03-20T09:36:39;12.33;;;5.17;;
69678;SDS011;56915;52.046;4.854;2023-03-20T09:39:07;12.85;;;4.53;;
69678;SDS011;56915;52.046;4.854;2023-03-20T09:41:35;13.02;;;4.75;;
69678;SDS011;56915;52.046;4.854;2023-03-20T09:47:31;15.73;;;5.22;;
69678;SDS011;56915;52.046;4.854;2023-03-20T09:50:25;14.80;;;5.30;;
69678;SDS011;56915;52.046;4.854;2023-03-20T09:53:04;14.27;;;5.05;;
69678;SDS011;56915;52.046;4.854;2023-03-20T09:55:59;16.15;;;5.70;;
69678;SDS011;56915;52.046;4.854;2023-03-20T09:58:29;15.02;;;5.18;;
69678;SDS011;56915;52.046;4.854;2023-03-20T10:01:02;14.55;;;5.10;;
69678;SDS011;56915;52.046;4.854;2023-03-20T10:06:12;13.80;;;5.35;;
69678;SDS011;56915;52.046;4.854;2023-03-20T10:08:40;15.15;;;5.82;;
69678;SDS011;56915;52.046;4.854;2023-03-20T10:17:37;14.10;;;5.87;;
69678;SDS011;56915;52.046;4.854;2023-03-20T10:22:44;11.65;;;6.38;;
69678;SDS011;56915;52.046;4.854;2023-03-20T10:28:11;17.63;;;7.47;;
69678;SDS011;56915;52.046;4.854;2023-03-20T10:30:52;17.87;;;7.47;;
69678;SDS011;56915;52.046;4.854;2023-03-20T10:33:47;15.48;;;7.75;;
69678;SDS011;56915;52.046;4.854;2023-03-20T10:36:35;21.05;;;8.65;;
69678;SDS011;56915;52.046;4.854;2023-03-20T10:42:16;21.52;;;7.57;;
69678;SDS011;56915;52.046;4.854;2023-03-20T10:44:55;19.77;;;7.90;;
69678;SDS011;56915;52.046;4.854;2023-03-20T10:47:32;16.50;;;7.70;;
69678;SDS011;56915;52.046;4.854;2023-03-20T10:50:06;18.50;;;7.90;;
69678;SDS011;56915;52.046;4.854;2023-03-20T10:52:42;17.02;;;7.57;;
69678;SDS011;56915;52.046;4.854;2023-03-20T10:55:14;16.83;;;8.30;;
69678;SDS011;56915;52.046;4.854;2023-03-20T10:58:28;18.17;;;7.97;;
69678;SDS011;56915;52.046;4.854;2023-03-20T11:00:37;19.17;;;8.20;;
69678;SDS011;56915;52.046;4.854;2023-03-20T11:03:04;21.58;;;8.50;;
69678;SDS011;56915;52.046;4.854;2023-03-20T11:05:33;19.75;;;7.75;;
69678;SDS011;56915;52.046;4.854;2023-03-20T11:08:06;16.85;;;9.10;;
69678;SDS011;56915;52.046;4.854;2023-03-20T11:10:37;16.60;;;7.97;;
69678;SDS011;56915;52.046;4.854;2023-03-20T11:13:13;21.45;;;9.23;;
69678;SDS011;56915;52.046;4.854;2023-03-20T11:15:44;19.25;;;8.35;;
69678;SDS011;56915;52.046;4.854;2023-03-20T11:18:12;20.98;;;8.07;;
69678;SDS011;56915;52.046;4.854;2023-03-20T11:20:54;16.75;;;8.85;;
69678;SDS011;56915;52.046;4.854;2023-03-20T11:23:32;20.23;;;8.70;;
69678;SDS011;56915;52.046;4.854;2023-03-20T11:26:05;16.55;;;8.45;;
69678;SDS011;56915;52.046;4.854;2023-03-20T11:28:46;19.17;;;9.00;;
69678;SDS011;56915;52.046;4.854;2023-03-20T11:31:24;19.23;;;8.07;;
69678;SDS011;56915;52.046;4.854;2023-03-20T11:34:10;16.35;;;8.15;;
69678;SDS011;56915;52.046;4.854;2023-03-20T11:39:35;18.70;;;8.50;;
69678;SDS011;56915;52.046;4.854;2023-03-20T11:42:18;19.88;;;9.40;;
69678;SDS011;56915;52.046;4.854;2023-03-20T11:44:58;19.50;;;9.02;;
69678;SDS011;56915;52.046;4.854;2023-03-20T11:47:30;21.75;;;9.15;;
69678;SDS011;56915;52.046;4.854;2023-03-20T11:50:00;19.10;;;8.70;;
69678;SDS011;56915;52.046;4.854;2023-03-20T11:52:37;18.55;;;8.57;;
69678;SDS011;56915;52.046;4.854;2023-03-20T11:55:28;22.83;;;9.75;;
69678;SDS011;56915;52.046;4.854;2023-03-20T11:58:00;18.73;;;9.68;;
69678;SDS011;56915;52.046;4.854;2023-03-20T12:00:35;21.15;;;10.40;;
69678;SDS011;56915;52.046;4.854;2023-03-20T12:06:04;18.45;;;8.90;;
69678;SDS011;56915;52.046;4.854;2023-03-20T12:08:32;20.02;;;9.57;;
69678;SDS011;56915;52.046;4.854;2023-03-20T12:11:10;19.15;;;9.13;;
69678;SDS011;56915;52.046;4.854;2023-03-20T12:13:49;22.40;;;8.40;;
69678;SDS011;56915;52.046;4.854;2023-03-20T12:16:21;25.30;;;9.83;;
69678;SDS011;56915;52.046;4.854;2023-03-20T12:18:53;24.70;;;9.13;;
69678;SDS011;56915;52.046;4.854;2023-03-20T12:21:25;17.67;;;8.52;;
69678;SDS011;56915;52.046;4.854;2023-03-20T12:23:59;22.88;;;11.30;;
69678;SDS011;56915;52.046;4.854;2023-03-20T12:29:36;24.27;;;10.90;;
69678;SDS011;56915;52.046;4.854;2023-03-20T12:35:10;25.27;;;9.90;;
69678;SDS011;56915;52.046;4.854;2023-03-20T12:37:44;25.13;;;10.20;;
69678;SDS011;56915;52.046;4.854;2023-03-20T12:40:14;24.60;;;10.77;;
69678;SDS011;56915;52.046;4.854;2023-03-20T12:45:38;22.40;;;9.15;;
69678;SDS011;56915;52.046;4.854;2023-03-20T12:48:16;23.83;;;9.93;;
69678;SDS011;56915;52.046;4.854;2023-03-20T12:50:59;21.75;;;9.07;;
69678;SDS011;56915;52.046;4.854;2023-03-20T12:54:10;25.98;;;9.43;;
69678;SDS011;56915;52.046;4.854;2023-03-20T13:02:03;20.92;;;9.23;;
69678;SDS011;56915;52.046;4.854;2023-03-20T13:07:19;18.33;;;9.20;;
69678;SDS011;56915;52.046;4.854;2023-03-20T13:10:00;19.87;;;9.30;;
69678;SDS011;56915;52.046;4.854;2023-03-20T13:12:47;19.88;;;10.40;;
69678;SDS011;56915;52.046;4.854;2023-03-20T13:18:36;21.83;;;9.70;;
69678;SDS011;56915;52.046;4.854;2023-03-20T13:21:30;23.25;;;10.98;;
69678;SDS011;56915;52.046;4.854;2023-03-20T13:24:16;23.03;;;10.17;;
69678;SDS011;56915;52.046;4.854;2023-03-20T13:27:01;20.00;;;9.77;;
69678;SDS011;56915;52.046;4.854;2023-03-20T13:32:32;23.65;;;9.88;;
69678;SDS011;56915;52.046;4.854;2023-03-20T13:35:22;21.08;;;9.52;;
69678;SDS011;56915;52.046;4.854;2023-03-20T13:38:32;22.27;;;10.10;;
69678;SDS011;56915;52.046;4.854;2023-03-20T13:41:06;20.38;;;9.52;;
69678;SDS011;56915;52.046;4.854;2023-03-20T13:43:42;21.67;;;9.25;;
69678;SDS011;56915;52.046;4.854;2023-03-20T13:46:25;23.23;;;9.68;;
69678;SDS011;56915;52.046;4.854;2023-03-20T13:49:04;22.50;;;10.30;;
69678;SDS011;56915;52.046;4.854;2023-03-20T13:51:43;22.73;;;9.37;;
69678;SDS011;56915;52.046;4.854;2023-03-20T14:02:26;21.23;;;9.43;;
69678;SDS011;56915;52.046;4.854;2023-03-20T14:05:15;22.23;;;9.97;;
69678;SDS011;56915;52.046;4.854;2023-03-20T14:07:46;22.65;;;9.98;;
69678;SDS011;56915;52.046;4.854;2023-03-20T14:12:55;19.63;;;10.00;;
69678;SDS011;56915;52.046;4.854;2023-03-20T14:15:27;21.45;;;10.95;;
69678;SDS011;56915;52.046;4.854;2023-03-20T14:18:03;22.10;;;10.37;;
69678;SDS011;56915;52.046;4.854;2023-03-20T14:20:37;22.50;;;10.93;;
69678;SDS011;56915;52.046;4.854;2023-03-20T14:23:15;21.80;;;10.85;;
69678;SDS011;56915;52.046;4.854;2023-03-20T14:25:44;21.15;;;9.77;;
69678;SDS011;56915;52.046;4.854;2023-03-20T14:30:45;19.57;;;11.50;;
69678;SDS011;56915;52.046;4.854;2023-03-20T14:46:52;25.42;;;11.30;;
69678;SDS011;56915;52.046;4.854;2023-03-20T14:49:34;23.98;;;12.80;;
69678;SDS011;56915;52.046;4.854;2023-03-20T14:57:53;28.17;;;11.70;;
69678;SDS011;56915;52.046;4.854;2023-03-20T15:00:26;28.02;;;11.23;;
69678;SDS011;56915;52.046;4.854;2023-03-20T15:03:08;28.33;;;12.82;;
69678;SDS011;56915;52.046;4.854;2023-03-20T15:05:42;31.67;;;12.15;;
69678;SDS011;56915;52.046;4.854;2023-03-20T15:08:32;24.60;;;12.02;;
69678;SDS011;56915;52.046;4.854;2023-03-20T15:11:01;26.70;;;11.33;;
69678;SDS011;56915;52.046;4.854;2023-03-20T15:13:34;26.85;;;11.52;;
69678;SDS011;56915;52.046;4.854;2023-03-20T15:16:09;29.88;;;12.50;;
69678;SDS011;56915;52.046;4.854;2023-03-20T15:18:43;34.20;;;12.85;;
69678;SDS011;56915;52.046;4.854;2023-03-20T15:21:15;27.23;;;11.70;;
69678;SDS011;56915;52.046;4.854;2023-03-20T15:23:48;24.67;;;13.90;;
69678;SDS011;56915;52.046;4.854;2023-03-20T15:26:20;28.52;;;13.00;;
69678;SDS011;56915;52.046;4.854;2023-03-20T15:28:54;33.33;;;12.80;;
69678;SDS011;56915;52.046;4.854;2023-03-20T15:31:44;33.58;;;16.45;;
69678;SDS011;56915;52.046;4.854;2023-03-20T15:34:19;33.88;;;14.52;;
69678;SDS011;56915;52.046;4.854;2023-03-20T15:36:54;27.90;;;14.43;;
69678;SDS011;56915;52.046;4.854;2023-03-20T15:39:24;38.25;;;17.30;;
69678;SDS011;56915;52.046;4.854;2023-03-20T15:44:27;37.15;;;18.23;;
69678;SDS011;56915;52.046;4.854;2023-03-20T15:47:06;40.28;;;19.23;;
69678;SDS011;56915;52.046;4.854;2023-03-20T15:49:50;38.00;;;17.60;;
69678;SDS011;56915;52.046;4.854;2023-03-20T15:52:30;35.35;;;16.05;;
69678;SDS011;56915;52.046;4.854;2023-03-20T15:55:15;30.25;;;14.13;;
69678;SDS011;56915;52.046;4.854;2023-03-20T15:57:45;35.53;;;13.45;;
69678;SDS011;56915;52.046;4.854;2023-03-20T16:00:19;27.50;;;11.73;;
69678;SDS011;56915;52.046;4.854;2023-03-20T16:02:47;42.83;;;21.67;;
69678;SDS011;56915;52.046;4.854;2023-03-20T16:05:25;34.80;;;16.00;;
69678;SDS011;56915;52.046;4.854;2023-03-20T16:07:55;33.40;;;15.90;;
69678;SDS011;56915;52.046;4.854;2023-03-20T16:10:29;40.33;;;17.05;;
69678;SDS011;56915;52.046;4.854;2023-03-20T16:13:11;34.60;;;14.30;;
69678;SDS011;56915;52.046;4.854;2023-03-20T16:15:44;32.37;;;11.50;;
69678;SDS011;56915;52.046;4.854;2023-03-20T16:18:13;28.02;;;12.23;;
69678;SDS011;56915;52.046;4.854;2023-03-20T16:21:03;27.55;;;12.32;;
69678;SDS011;56915;52.046;4.854;2023-03-20T16:23:33;29.23;;;11.32;;
69678;SDS011;56915;52.046;4.854;2023-03-20T16:26:07;30.40;;;11.90;;
69678;SDS011;56915;52.046;4.854;2023-03-20T16:28:40;34.63;;;11.93;;
69678;SDS011;56915;52.046;4.854;2023-03-20T16:31:08;33.80;;;14.57;;
69678;SDS011;56915;52.046;4.854;2023-03-20T16:33:42;41.97;;;20.40;;
69678;SDS011;56915;52.046;4.854;2023-03-20T16:36:20;42.80;;;20.55;;
69678;SDS011;56915;52.046;4.854;2023-03-20T16:38:57;36.17;;;15.70;;
69678;SDS011;56915;52.046;4.854;2023-03-20T16:41:36;33.50;;;13.93;;
69678;SDS011;56915;52.046;4.854;2023-03-20T16:44:11;27.83;;;12.63;;
69678;SDS011;56915;52.046;4.854;2023-03-20T16:46:56;27.98;;;12.15;;
69678;SDS011;56915;52.046;4.854;2023-03-20T16:49:49;28.75;;;13.65;;
69678;SDS011;56915;52.046;4.854;2023-03-20T16:52:38;27.50;;;12.88;;
69678;SDS011;56915;52.046;4.854;2023-03-20T16:55:13;31.00;;;13.57;;
69678;SDS011;56915;52.046;4.854;2023-03-20T16:57:45;40.50;;;19.60;;
69678;SDS011;56915;52.046;4.854;2023-03-20T17:02:58;33.28;;;12.52;;
69678;SDS011;56915;52.046;4.854;2023-03-20T17:05:40;29.40;;;14.18;;
69678;SDS011;56915;52.046;4.854;2023-03-20T17:08:15;20.77;;;10.33;;
69678;SDS011;56915;52.046;4.854;2023-03-20T17:10:52;24.05;;;10.73;;
69678;SDS011;56915;52.046;4.854;2023-03-20T17:13:22;25.55;;;11.95;;
69678;SDS011;56915;52.046;4.854;2023-03-20T17:15:49;22.42;;;10.63;;
69678;SDS011;56915;52.046;4.854;2023-03-20T17:18:15;21.77;;;9.85;;